Terminal Aerodrome Forecast
Issued by NWS

Home | Current Version | Previous Version | Text Only | Print | Product List | Glossary On
Versions: 1 2 3 4 5 6 7 8 9 10 11 12 13 14 15
245
FTUS46 KHNX 180538
TAFMCE
TAF
KMCE 180538Z 1806/1906 30003KT P6SM SKC
     FM181000 VRB03KT 5SM BR SKC
      TEMPO 1813/1817 2SM BR SKC
     FM182000 VRB04KT P6SM SKC=

USA.gov is the U.S. government's official web portal to all federal, state and local government web resources and services.